createdAt,value
2019-02-27T00:01:18.894Z,31.23
2019-02-27T00:03:48.301Z,32.00
2019-02-27T00:06:17.703Z,32.70
2019-02-27T00:08:47.058Z,31.70
2019-02-27T00:11:16.645Z,32.70
2019-02-27T00:13:46.153Z,36.35
2019-02-27T00:16:15.570Z,37.33
2019-02-27T00:18:44.988Z,32.63
2019-02-27T00:21:15.287Z,37.20
2019-02-27T00:23:44.634Z,34.78
2019-02-27T00:26:13.965Z,31.55
2019-02-27T00:28:43.593Z,31.95
2019-02-27T00:31:12.918Z,37.08
2019-02-27T00:33:42.258Z,31.73
2019-02-27T00:36:12.306Z,32.28
2019-02-27T00:38:43.737Z,30.05
2019-02-27T00:41:13.115Z,32.20
2019-02-27T00:43:42.685Z,33.73
2019-02-27T00:46:13.403Z,37.80
2019-02-27T00:48:44.304Z,30.97
2019-02-27T00:51:13.988Z,33.18
2019-02-27T00:53:43.302Z,33.85
2019-02-27T00:56:12.937Z,31.20
2019-02-27T00:58:42.418Z,29.30
2019-02-27T01:01:12.658Z,31.80
2019-02-27T01:03:42.525Z,32.03
2019-02-27T01:06:14.622Z,29.05
2019-02-27T01:08:43.404Z,30.50
2019-02-27T01:11:12.731Z,32.50
2019-02-27T01:13:42.066Z,30.45
2019-02-27T01:16:11.439Z,33.18
2019-02-27T01:18:40.769Z,30.40
2019-02-27T01:21:10.108Z,34.88
2019-02-27T01:23:43.859Z,30.37
2019-02-27T01:26:10.470Z,29.70
2019-02-27T01:28:44.679Z,32.45
2019-02-27T01:31:11.093Z,29.63
2019-02-27T01:33:40.507Z,37.55
2019-02-27T01:36:10.143Z,30.60
2019-02-27T01:38:39.478Z,33.48
2019-02-27T01:41:08.816Z,35.03
2019-02-27T01:43:39.862Z,29.12
2019-02-27T01:46:09.183Z,28.60
2019-02-27T01:48:42.821Z,31.90
2019-02-27T01:51:09.545Z,32.98
2019-02-27T01:53:40.451Z,30.12
2019-02-27T01:56:10.244Z,32.33
2019-02-27T01:58:43.310Z,31.07
2019-02-27T02:01:10.689Z,33.33
2019-02-27T02:03:40.189Z,25.97
2019-02-27T02:06:09.924Z,29.02
2019-02-27T02:08:43.188Z,31.87
2019-02-27T02:11:12.525Z,36.08
2019-02-27T02:13:50.817Z,38.20
2019-02-27T02:16:28.871Z,33.88
2019-02-27T02:19:26.912Z,25.52
2019-02-27T02:22:14.273Z,36.08
2019-02-27T02:25:10.153Z,30.12
2019-02-27T02:27:57.986Z,29.23
2019-02-27T02:30:44.914Z,32.53
2019-02-27T02:33:17.540Z,29.40
2019-02-27T02:36:04.617Z,30.12
2019-02-27T02:38:53.629Z,32.35
2019-02-27T02:41:34.959Z,35.15
2019-02-27T02:44:26.799Z,34.63
2019-02-27T02:47:08.167Z,29.82
2019-02-27T02:49:49.365Z,32.60
2019-02-27T02:52:41.705Z,31.10
2019-02-27T02:55:23.380Z,33.70
2019-02-27T02:58:07.752Z,34.58
2019-02-27T03:01:13.964Z,31.00
2019-02-27T03:03:43.006Z,31.37
2019-02-27T03:06:34.582Z,27.42
2019-02-27T03:09:30.639Z,31.07
2019-02-27T03:12:21.322Z,31.97
2019-02-27T03:14:54.560Z,29.75
2019-02-27T03:17:27.081Z,33.20
2019-02-27T03:20:19.406Z,32.42
2019-02-27T03:23:09.141Z,33.67
2019-02-27T03:25:47.530Z,31.15
2019-02-27T03:28:40.580Z,27.93
2019-02-27T03:31:35.034Z,29.15
2019-02-27T03:34:25.113Z,34.73
2019-02-27T03:37:13.152Z,34.03
2019-02-27T03:39:55.765Z,31.17
2019-02-27T03:42:40.187Z,34.75
2019-02-27T03:45:32.383Z,35.40
2019-02-27T03:48:13.558Z,33.10
2019-02-27T03:50:54.975Z,33.00
2019-02-27T03:53:27.391Z,32.93
2019-02-27T03:56:16.358Z,30.65
2019-02-27T03:59:09.296Z,28.75
2019-02-27T04:02:05.876Z,32.28
2019-02-27T04:04:46.595Z,29.98
2019-02-27T04:07:43.357Z,31.65
2019-02-27T04:10:12.699Z,28.87
2019-02-27T04:12:42.073Z,30.12
2019-02-27T04:15:17.615Z,30.27
2019-02-27T04:17:41.533Z,28.42
2019-02-27T04:20:14.609Z,30.37
2019-02-27T04:22:41.961Z,33.78
2019-02-27T04:25:11.295Z,33.63
2019-02-27T04:27:43.728Z,33.70
2019-02-27T04:30:15.665Z,29.85
2019-02-27T04:32:48.688Z,34.48
2019-02-27T04:35:16.021Z,28.65
2019-02-27T04:37:45.353Z,31.60
2019-02-27T04:40:14.683Z,34.70
2019-02-27T04:42:44.016Z,29.40
2019-02-27T04:45:13.349Z,29.07
2019-02-27T04:47:42.744Z,34.20
2019-02-27T04:50:12.144Z,33.85
2019-02-27T04:52:41.484Z,27.00
2019-02-27T04:55:15.342Z,30.62
2019-02-27T04:57:41.915Z,27.75
2019-02-27T05:00:12.189Z,29.75
2019-02-27T05:02:41.533Z,27.93
2019-02-27T05:05:10.930Z,25.10
2019-02-27T05:07:41.525Z,29.20
2019-02-27T05:10:11.258Z,28.32
2019-02-27T05:12:40.600Z,29.18
2019-02-27T05:15:10.101Z,26.33
2019-02-27T05:17:39.432Z,31.07
2019-02-27T05:20:12.527Z,26.70
2019-02-27T05:22:40.345Z,36.98
2019-02-27T05:25:12.078Z,29.65
2019-02-27T05:27:41.075Z,26.70
2019-02-27T05:30:12.879Z,24.37
2019-02-27T05:32:42.631Z,26.50
2019-02-27T05:35:11.981Z,26.75
2019-02-27T05:37:41.370Z,30.43
2019-02-27T05:40:11.241Z,28.23
2019-02-27T05:42:40.568Z,27.52
2019-02-27T05:45:12.055Z,24.27
2019-02-27T05:47:44.673Z,25.75
2019-02-27T05:50:12.890Z,26.70
2019-02-27T05:52:42.223Z,26.50
2019-02-27T05:55:12.418Z,25.23
2019-02-27T05:57:41.745Z,30.08
2019-02-27T06:00:16.689Z,25.45
2019-02-27T06:02:46.039Z,23.47
2019-02-27T06:05:15.551Z,24.23
2019-02-27T06:07:45.136Z,23.15
2019-02-27T06:10:20.158Z,23.52
2019-02-27T06:12:48.992Z,27.67
2019-02-27T06:15:18.874Z,27.52
2019-02-27T06:17:49.206Z,33.80
2019-02-27T06:20:19.427Z,26.93
2019-02-27T06:22:49.730Z,31.25
2019-02-27T06:25:23.212Z,30.08
2019-02-27T06:27:50.373Z,28.55
2019-02-27T06:30:21.049Z,29.77
2019-02-27T06:32:50.647Z,26.37
2019-02-27T06:35:19.975Z,28.87
2019-02-27T06:37:50.866Z,25.50
2019-02-27T06:40:20.368Z,25.95
2019-02-27T06:42:53.427Z,22.95
2019-02-27T06:45:20.805Z,29.77
2019-02-27T06:47:50.149Z,24.18
2019-02-27T06:50:19.525Z,29.63
2019-02-27T06:52:48.848Z,26.33
2019-02-27T06:55:18.187Z,33.25
2019-02-27T06:57:47.510Z,28.98
2019-02-27T07:00:24.463Z,27.52
2019-02-27T07:02:55.458Z,28.42
2019-02-27T07:05:24.822Z,24.43
2019-02-27T07:07:54.159Z,27.55
2019-02-27T07:10:23.492Z,26.60
2019-02-27T07:12:54.682Z,32.55
2019-02-27T07:15:23.916Z,27.05
2019-02-27T07:17:53.246Z,28.40
2019-02-27T07:20:24.605Z,30.05
2019-02-27T07:22:53.964Z,29.82
2019-02-27T07:25:23.285Z,34.23
2019-02-27T07:27:52.620Z,39.25
2019-02-27T07:30:23.709Z,33.55
2019-02-27T07:32:52.987Z,29.27
2019-02-27T07:35:25.371Z,28.07
2019-02-27T07:37:53.751Z,32.65
2019-02-27T07:40:23.074Z,28.57
2019-02-27T07:42:52.405Z,27.75
2019-02-27T07:45:22.932Z,24.70
2019-02-27T07:47:52.597Z,28.75
2019-02-27T07:50:22.292Z,26.10
2019-02-27T07:52:52.251Z,20.37
2019-02-27T07:55:23.300Z,25.02
2019-02-27T07:57:52.774Z,26.90
2019-02-27T08:00:23.277Z,29.90
2019-02-27T08:02:52.956Z,21.95
2019-02-27T08:05:22.213Z,25.10
2019-02-27T08:07:51.546Z,22.17
2019-02-27T08:10:22.980Z,19.20
2019-02-27T08:12:55.530Z,23.30
2019-02-27T08:15:25.204Z,21.80
2019-02-27T08:17:57.469Z,22.07
2019-02-27T08:20:25.740Z,18.77
2019-02-27T08:22:55.064Z,22.25
2019-02-27T08:25:24.637Z,21.15
2019-02-27T08:27:54.312Z,18.80
2019-02-27T08:30:25.091Z,18.62
2019-02-27T08:32:54.497Z,19.57
2019-02-27T08:35:23.823Z,16.67
2019-02-27T08:38:01.890Z,18.85
2019-02-27T08:40:25.248Z,16.85
2019-02-27T08:42:54.906Z,18.70
2019-02-27T08:45:26.967Z,22.52
2019-02-27T08:47:55.843Z,18.60
2019-02-27T08:50:25.297Z,18.87
2019-02-27T08:52:54.626Z,19.50
2019-02-27T08:55:24.931Z,17.55
2019-02-27T08:57:56.928Z,18.62
2019-02-27T09:00:32.709Z,24.95
2019-02-27T09:03:03.037Z,24.70
2019-02-27T09:05:33.183Z,21.07
2019-02-27T09:08:02.509Z,21.35
2019-02-27T09:10:31.848Z,23.75
2019-02-27T09:13:05.363Z,22.93
2019-02-27T09:15:32.445Z,26.82
2019-02-27T09:18:02.479Z,25.50
2019-02-27T09:20:31.782Z,22.85
2019-02-27T09:23:01.354Z,21.00
2019-02-27T09:25:30.694Z,21.60
2019-02-27T09:28:00.089Z,21.40
2019-02-27T09:30:30.224Z,19.60
2019-02-27T09:32:59.632Z,24.40
2019-02-27T09:35:32.259Z,21.12
2019-02-27T09:38:00.310Z,22.22
2019-02-27T09:40:30.756Z,26.20
2019-02-27T09:43:00.085Z,22.90
2019-02-27T09:45:35.765Z,19.15
2019-02-27T09:48:05.376Z,25.70
2019-02-27T09:50:36.995Z,21.82
2019-02-27T09:53:06.336Z,18.98
2019-02-27T09:55:35.895Z,19.50
2019-02-27T09:58:09.960Z,20.50
2019-02-27T10:00:42.402Z,18.10
2019-02-27T10:03:11.942Z,19.30
2019-02-27T10:05:41.249Z,22.45
2019-02-27T10:08:12.240Z,19.15
2019-02-27T10:10:44.898Z,21.70
2019-02-27T10:13:12.682Z,22.40
2019-02-27T10:15:42.195Z,15.63
2019-02-27T10:18:11.571Z,15.10
2019-02-27T10:20:40.907Z,16.80
2019-02-27T10:23:10.220Z,20.52
2019-02-27T10:25:43.245Z,19.75
2019-02-27T10:28:10.765Z,23.00
2019-02-27T10:30:40.101Z,18.82
2019-02-27T10:33:11.119Z,19.82
2019-02-27T10:35:40.763Z,18.17
2019-02-27T10:38:10.094Z,19.73
2019-02-27T10:40:39.433Z,19.50
2019-02-27T10:43:09.173Z,21.70
2019-02-27T10:45:38.509Z,24.02
2019-02-27T10:48:07.848Z,24.43
2019-02-27T10:50:37.407Z,19.48
2019-02-27T10:53:06.754Z,19.27
2019-02-27T10:55:36.089Z,26.70
2019-02-27T10:58:07.568Z,18.70
2019-02-27T11:00:36.496Z,17.42
2019-02-27T11:03:05.901Z,20.72
2019-02-27T11:05:37.512Z,23.22
2019-02-27T11:08:06.918Z,18.92
2019-02-27T11:10:36.321Z,23.70
2019-02-27T11:13:07.052Z,19.12
2019-02-27T11:15:41.151Z,18.50
2019-02-27T11:18:07.606Z,19.10
2019-02-27T11:20:36.935Z,20.17
2019-02-27T11:23:07.090Z,19.75
2019-02-27T11:25:36.998Z,23.45
2019-02-27T11:28:06.498Z,15.98
2019-02-27T11:30:37.751Z,22.75
2019-02-27T11:33:07.220Z,16.87
2019-02-27T11:35:36.555Z,21.62
2019-02-27T11:38:05.880Z,19.90
2019-02-27T11:40:35.521Z,16.70
2019-02-27T11:43:06.970Z,20.40
2019-02-27T11:45:35.949Z,20.10
2019-02-27T11:48:05.448Z,14.68
2019-02-27T11:50:34.777Z,14.80
2019-02-27T11:53:04.173Z,12.78
2019-02-27T11:55:33.505Z,11.15
2019-02-27T11:58:05.329Z,12.23
2019-02-27T12:00:34.411Z,11.33
2019-02-27T12:03:03.809Z,12.80
2019-02-27T12:05:34.473Z,12.73
2019-02-27T12:08:04.075Z,11.90
2019-02-27T12:10:33.562Z,11.85
2019-02-27T12:13:03.138Z,10.88
2019-02-27T12:15:32.462Z,10.70
2019-02-27T12:18:01.972Z,11.18
2019-02-27T12:20:31.364Z,9.83
2019-02-27T12:23:00.701Z,11.50
2019-02-27T12:25:30.462Z,12.58
2019-02-27T12:28:01.921Z,13.83
2019-02-27T12:30:32.292Z,15.08
2019-02-27T12:33:01.699Z,11.10
2019-02-27T12:35:35.849Z,11.08
2019-02-27T12:38:08.182Z,13.25
2019-02-27T12:40:37.098Z,17.00
2019-02-27T12:43:06.430Z,15.98
2019-02-27T12:45:35.826Z,14.15
2019-02-27T12:48:05.239Z,14.15
2019-02-27T12:50:34.849Z,12.70
2019-02-27T12:53:04.713Z,12.05
2019-02-27T12:55:36.253Z,14.43
2019-02-27T12:58:05.079Z,12.15
2019-02-27T13:00:35.949Z,13.45
2019-02-27T13:03:08.461Z,10.68
2019-02-27T13:05:36.486Z,10.72
2019-02-27T13:08:06.214Z,15.75
2019-02-27T13:10:35.551Z,17.05
2019-02-27T13:13:04.923Z,14.35
2019-02-27T13:15:34.262Z,11.22
2019-02-27T13:18:03.826Z,10.13
2019-02-27T13:20:35.412Z,13.08
2019-02-27T13:23:05.579Z,12.53
2019-02-27T13:25:34.956Z,8.50
2019-02-27T13:28:04.363Z,10.10
2019-02-27T13:33:19.750Z,11.73
2019-02-27T13:35:49.080Z,9.80
2019-02-27T13:38:18.707Z,11.28
2019-02-27T13:40:48.055Z,8.85
2019-02-27T13:43:17.386Z,13.38
2019-02-27T13:45:47.605Z,10.48
2019-02-27T13:48:17.426Z,10.75
2019-02-27T13:50:46.993Z,12.10
2019-02-27T13:53:16.564Z,12.63
2019-02-27T13:55:48.254Z,11.55
2019-02-27T13:58:16.953Z,11.08
2019-02-27T14:00:46.292Z,10.45
2019-02-27T14:03:15.622Z,13.13
2019-02-27T14:05:44.964Z,9.48
2019-02-27T14:08:14.359Z,9.75
2019-02-27T14:10:43.690Z,11.00
2019-02-27T14:13:13.992Z,9.45
2019-02-27T14:15:43.317Z,7.22
2019-02-27T14:18:13.525Z,7.95
2019-02-27T14:20:43.661Z,8.30
2019-02-27T14:23:14.570Z,9.20
2019-02-27T14:25:44.008Z,8.65
2019-02-27T14:28:13.341Z,9.43
2019-02-27T14:30:48.198Z,8.58
2019-02-27T14:33:19.269Z,9.68
2019-02-27T14:35:48.551Z,9.90
2019-02-27T14:38:17.881Z,9.58
2019-02-27T14:40:47.451Z,9.88
2019-02-27T14:43:16.774Z,10.15
2019-02-27T14:45:46.331Z,7.62
2019-02-27T14:48:18.170Z,9.00
2019-02-27T14:50:46.687Z,10.15
2019-02-27T14:53:19.034Z,8.35
2019-02-27T14:55:47.265Z,9.33
2019-02-27T14:58:16.587Z,9.20
2019-02-27T15:00:46.151Z,9.80
2019-02-27T15:03:15.726Z,11.73
2019-02-27T15:05:45.371Z,10.60
2019-02-27T15:08:14.658Z,9.23
2019-02-27T15:10:44.049Z,11.40
2019-02-27T15:13:13.614Z,8.55
2019-02-27T15:15:43.753Z,8.23
2019-02-27T15:18:14.121Z,8.25
2019-02-27T15:20:43.423Z,11.12
2019-02-27T15:23:14.377Z,11.10
2019-02-27T15:25:43.704Z,11.12
2019-02-27T15:28:13.042Z,10.53
2019-02-27T15:30:46.315Z,11.38
2019-02-27T15:33:13.865Z,9.78
2019-02-27T15:35:43.255Z,9.10
2019-02-27T15:38:12.595Z,10.28
2019-02-27T15:40:42.086Z,8.83
2019-02-27T15:43:11.771Z,8.13
2019-02-27T15:45:47.274Z,12.50
2019-02-27T15:48:12.247Z,12.15
2019-02-27T15:50:41.584Z,9.85
2019-02-27T15:53:14.622Z,12.68
2019-02-27T15:55:42.183Z,10.10
2019-02-27T15:58:11.510Z,9.55
2019-02-27T16:00:40.912Z,13.60
2019-02-27T16:03:11.832Z,14.03
2019-02-27T16:05:41.342Z,10.60
2019-02-27T16:08:10.731Z,11.18
2019-02-27T16:10:43.713Z,9.65
2019-02-27T16:13:11.102Z,11.30
2019-02-27T16:15:40.661Z,13.48
2019-02-27T16:18:09.991Z,13.48
2019-02-27T16:20:39.327Z,10.03
2019-02-27T16:23:08.656Z,8.45
2019-02-27T16:25:37.990Z,14.65
2019-02-27T16:28:11.133Z,10.88
2019-02-27T16:30:38.640Z,11.28
2019-02-27T16:33:07.970Z,10.00
2019-02-27T16:35:41.575Z,15.20
2019-02-27T16:38:08.578Z,10.55
2019-02-27T16:40:37.902Z,18.75
2019-02-27T16:43:07.232Z,13.58
2019-02-27T16:45:37.975Z,27.30
2019-02-27T16:48:07.392Z,19.07
2019-02-27T16:50:36.716Z,16.70
2019-02-27T16:53:06.051Z,23.67
2019-02-27T16:55:37.457Z,19.80
2019-02-27T16:58:07.647Z,17.15
2019-02-27T17:00:38.551Z,17.15
2019-02-27T17:03:12.801Z,15.55
2019-02-27T17:05:40.376Z,13.08
2019-02-27T17:08:10.002Z,13.22
2019-02-27T17:10:39.961Z,14.10
2019-02-27T17:13:14.666Z,12.73
2019-02-27T17:15:40.416Z,13.30
2019-02-27T17:18:09.760Z,12.30
2019-02-27T17:20:39.336Z,12.45
2019-02-27T17:23:10.952Z,12.00
2019-02-27T17:25:39.698Z,13.40
2019-02-27T17:28:09.024Z,11.05
2019-02-27T17:30:38.418Z,12.95
2019-02-27T17:33:07.762Z,10.82
2019-02-27T17:35:37.087Z,11.45
2019-02-27T17:38:06.463Z,11.90
2019-02-27T17:40:37.599Z,12.25
2019-02-27T17:43:07.198Z,12.28
2019-02-27T17:45:36.772Z,11.75
2019-02-27T17:48:06.127Z,12.47
2019-02-27T17:50:35.458Z,12.93
2019-02-27T17:53:04.880Z,12.78
2019-02-27T17:55:34.193Z,12.70
2019-02-27T17:58:03.758Z,15.30
2019-02-27T18:00:49.975Z,12.85
2019-02-27T18:03:17.942Z,14.68
2019-02-27T18:05:47.275Z,13.08
2019-02-27T18:08:17.223Z,14.07
2019-02-27T18:10:46.587Z,12.33
2019-02-27T18:13:15.926Z,15.13
2019-02-27T18:15:45.251Z,15.18
2019-02-27T18:18:14.583Z,12.75
2019-02-27T18:20:44.168Z,19.45
2019-02-27T18:23:13.506Z,13.85
2019-02-27T18:25:43.062Z,14.43
2019-02-27T18:28:12.388Z,17.42
2019-02-27T18:30:42.717Z,16.62
2019-02-27T18:33:13.953Z,14.70
2019-02-27T18:35:43.222Z,15.20
2019-02-27T18:38:12.556Z,14.15
2019-02-27T18:40:42.779Z,18.77
2019-02-27T18:43:12.192Z,18.00
2019-02-27T18:45:41.526Z,17.70
2019-02-27T18:48:10.876Z,23.62
2019-02-27T18:50:40.209Z,24.15
2019-02-27T18:53:12.938Z,26.30
2019-02-27T18:55:40.590Z,24.10
2019-02-27T18:58:09.925Z,23.95
2019-02-27T19:00:39.265Z,25.08
2019-02-27T19:03:10.241Z,22.77
2019-02-27T19:05:41.824Z,22.62
2019-02-27T19:08:10.602Z,20.02
2019-02-27T19:10:42.431Z,20.12
2019-02-27T19:13:11.137Z,23.05
2019-02-27T19:15:45.427Z,19.52
2019-02-27T19:18:12.022Z,14.38
2019-02-27T19:20:43.784Z,16.42
2019-02-27T19:23:17.193Z,16.97
2019-02-27T19:25:45.598Z,22.77
2019-02-27T19:28:14.980Z,19.75
2019-02-27T19:30:44.341Z,16.95
2019-02-27T19:33:13.653Z,17.67
2019-02-27T19:35:43.023Z,19.23
2019-02-27T19:38:13.073Z,17.57
2019-02-27T19:40:43.171Z,18.90
2019-02-27T19:43:12.737Z,19.60
2019-02-27T19:45:42.485Z,18.57
2019-02-27T19:48:12.870Z,18.98
2019-02-27T19:50:44.866Z,16.77
2019-02-27T19:53:13.295Z,15.98
2019-02-27T19:55:42.753Z,16.80
2019-02-27T19:58:17.246Z,14.43
2019-02-27T20:00:48.500Z,17.87
2019-02-27T20:03:14.578Z,15.32
2019-02-27T20:05:43.908Z,20.52
2019-02-27T20:08:13.243Z,15.00
2019-02-27T20:10:44.161Z,20.37
2019-02-27T20:13:13.876Z,15.80
2019-02-27T20:15:45.672Z,17.82
2019-02-27T20:18:15.016Z,19.07
2019-02-27T20:20:44.414Z,18.92
2019-02-27T20:23:13.821Z,17.42
2019-02-27T20:25:44.370Z,15.78
2019-02-27T20:28:13.845Z,20.12
2019-02-27T20:30:43.466Z,20.00
2019-02-27T20:33:12.950Z,17.65
2019-02-27T20:35:42.265Z,24.45
2019-02-27T20:38:15.476Z,23.73
2019-02-27T20:40:43.021Z,21.07
2019-02-27T20:43:13.317Z,19.00
2019-02-27T20:45:43.535Z,20.88
2019-02-27T20:48:13.203Z,18.35
2019-02-27T20:50:48.508Z,26.70
2019-02-27T20:53:20.936Z,20.90
2019-02-27T20:55:49.145Z,20.08
2019-02-27T20:58:18.840Z,26.27
2019-02-27T21:00:48.519Z,19.23
2019-02-27T21:03:17.854Z,19.65
2019-02-27T21:05:48.586Z,16.48
2019-02-27T21:08:17.918Z,26.15
2019-02-27T21:10:47.367Z,26.20
2019-02-27T21:13:16.963Z,19.17
2019-02-27T21:15:46.368Z,20.02
2019-02-27T21:18:16.213Z,21.40
2019-02-27T21:20:46.224Z,25.95
2019-02-27T21:23:15.889Z,22.85
2019-02-27T21:25:48.768Z,22.98
2019-02-27T21:28:20.962Z,25.70
2019-02-27T21:30:51.910Z,20.82
2019-02-27T21:33:19.038Z,19.90
2019-02-27T21:35:48.417Z,18.65
2019-02-27T21:38:17.777Z,26.50
2019-02-27T21:40:47.239Z,22.82
2019-02-27T21:43:16.565Z,23.50
2019-02-27T21:45:46.008Z,19.42
2019-02-27T21:48:15.693Z,24.45
2019-02-27T21:50:45.357Z,18.35
2019-02-27T21:53:14.718Z,24.07
2019-02-27T21:55:44.916Z,23.45
2019-02-27T21:58:20.298Z,23.10
2019-02-27T22:00:48.125Z,23.80
2019-02-27T22:03:17.008Z,23.70
2019-02-27T22:05:46.980Z,22.82
2019-02-27T22:08:16.438Z,28.15
2019-02-27T22:10:45.841Z,22.93
2019-02-27T22:13:15.329Z,23.80
2019-02-27T22:15:44.774Z,26.20
2019-02-27T22:18:14.199Z,25.82
2019-02-27T22:20:43.536Z,26.65
2019-02-27T22:23:13.557Z,23.60
2019-02-27T22:25:42.921Z,28.83
2019-02-27T22:28:12.245Z,23.75
2019-02-27T22:30:41.807Z,27.62
2019-02-27T22:33:11.136Z,32.17
2019-02-27T22:35:40.470Z,31.02
2019-02-27T22:38:09.792Z,26.23
2019-02-27T22:40:39.238Z,24.32
2019-02-27T22:43:08.769Z,24.10
2019-02-27T22:45:40.577Z,29.77
2019-02-27T22:48:09.119Z,29.60
2019-02-27T22:50:41.230Z,28.62
2019-02-27T22:53:09.477Z,31.48
2019-02-27T22:55:42.263Z,28.27
2019-02-27T22:58:09.832Z,28.17
2019-02-27T23:00:56.550Z,27.82
2019-02-27T23:03:30.956Z,28.55
2019-02-27T23:06:00.361Z,29.48
2019-02-27T23:08:30.665Z,28.30
2019-02-27T23:11:02.950Z,26.52
2019-02-27T23:13:31.914Z,28.65
2019-02-27T23:16:01.267Z,30.20
2019-02-27T23:18:31.370Z,28.17
2019-02-27T23:21:00.764Z,27.95
2019-02-27T23:23:30.060Z,29.95
2019-02-27T23:25:59.620Z,29.90
2019-02-27T23:28:34.528Z,32.15
2019-02-27T23:31:00.955Z,29.95
2019-02-27T23:33:35.873Z,34.00
2019-02-27T23:36:01.682Z,30.62
2019-02-27T23:38:31.013Z,35.20
2019-02-27T23:41:00.342Z,33.28
2019-02-27T23:43:29.667Z,35.43
2019-02-27T23:45:58.999Z,36.42
2019-02-27T23:48:28.716Z,34.50
2019-02-27T23:50:58.045Z,36.03
2019-02-27T23:53:27.839Z,34.95
2019-02-27T23:55:57.184Z,31.60
2019-02-27T23:58:29.487Z,32.60
